Bridgewater, VA (22812)

8:25 AM EDT on September 04, 2015 (GMT -0400)
Bridgewater FD | | Change Station
CLOSE
Current Station
Personal Weather Station
Location: Bridgewater, VA
Elevation: 1184 ft
Nearby Weather Stations

Elev 1184 ft 38.38 °N, 78.97 °W | Updated 32 seconds ago

Clear
Clear
67.5 °F
Feels Like 67.5 °F
N
0.9
Wind Variable Wind from SW
Gusts 1.0 mph

Today
High -- | Low -- °F
--% Chance of Precip.
Yesterday
High -- | Low -- °F
Precip. -- in
6:47 AM 7:41 PM
Waning Gibbous, 60% visible
Pressure 30.09 in
Visibility 3.0 miles
Clouds Clear
Dew Point 65 °F
Humidity 92%
Rainfall 0.00 in
Snow Depth Not available.
UV 1 out of 12
Pollen 9.30 out of 12
Air Quality Not available.
Flu Activity Not available.
METAR KSHD 041215Z AUTO 00000KT 3SM BR CLR 20/19 A3009 RMK AO2 T01950187
Pressure 30.09 in
Visibility 3.0 miles
Clouds Clear
Dew Point 65 °F
Humidity 92%
Rainfall 0.00 in
Snow Depth Not available.
UV 1 out of 12
Pollen 9.30 out of 12
Air Quality Not available.
Flu Activity Not available.
METAR KSHD 041215Z AUTO 00000KT 3SM BR CLR 20/19 A3009 RMK AO2 T01950187

10-Day Weather Forecast

×

Almanac

Astronomy

Sep. 04, 2015 Rise Set
Actual Time
Civil Twilight
Nautical Twilight
Astronomical Twilight
Moon
Length of Visible Light
Length of Day
Tomorrow will be .
, % of the Moon is Illuminated

Today's Extremes

State Highs State Lows

Community

WunderPhotos

Upload Photos

1,852,160 photos uploaded!

WunderBlogs® & News

Nearby

Air Quality

  Air Quality AQ Index Pollutant
Not available.

Snow Depth

Station Depth Elevation

Earthquake Activity

City Distance Mag. Time & Date
Minimum magnitude displayed is 2.5.

Coastal Water Temperatures

Place Temperature

Stations

Nearby Weather Stations

Station Location Temp. Windchill Dew Point Humidity Wind Precip. Elev Updated Type